Time;durP1;ratioP1;P1;durP2;ratioP2;P2;SDS_P1;SDS_P2;PMS_P1;PMS_P2;Temp;Humidity;BMP_temperature;BMP_pressure;BME280_temperature;BME280_humidity;BME280_pressure;Samples;Min_cycle;Max_cycle;Signal;HPM_P1;HPM_P2
2022/03/28 00:01:15;;;;;;;12.87;7.53;;;;;;;12.36;46.61;100574.69;5054108;28;20242;-66
2022/03/28 00:03:42;;;;;;;11.00;7.77;;;;;;;12.35;46.77;100568.56;5054631;28;20634;-66
2022/03/28 00:06:10;;;;;;;9.17;7.77;;;;;;;11.97;48.19;100572.19;5054092;28;20236;-66
2022/03/28 00:08:37;;;;;;;10.37;7.97;;;;;;;11.63;49.62;100568.31;5053687;28;20678;-66
2022/03/28 00:11:04;;;;;;;9.67;8.43;;;;;;;11.56;49.67;100573.47;5053641;28;20202;-66
2022/03/28 00:13:31;;;;;;;9.10;7.00;;;;;;;11.62;49.71;100567.47;5054140;28;20571;-66
2022/03/28 00:15:57;;;;;;;9.03;7.53;;;;;;;11.42;50.71;100562.75;5053862;28;20273;-67
2022/03/28 00:18:24;;;;;;;8.77;7.27;;;;;;;11.50;50.68;100563.53;5053815;28;20192;-67
2022/03/28 00:20:53;;;;;;;8.93;8.10;;;;;;;11.51;50.30;100559.84;5053425;28;20214;-67
2022/03/28 00:23:21;;;;;;;8.27;7.50;;;;;;;11.41;50.90;100559.28;5053375;28;20636;-67
2022/03/28 00:25:48;;;;;;;15.57;8.80;;;;;;;11.44;50.97;100563.41;5053611;28;20218;-67
2022/03/28 00:28:15;;;;;;;12.37;7.47;;;;;;;11.45;50.73;100565.91;5053247;28;20195;-67
2022/03/28 00:30:42;;;;;;;7.97;7.20;;;;;;;11.46;50.98;100570.22;5053549;28;20194;-67
2022/03/28 00:33:09;;;;;;;16.57;8.07;;;;;;;11.33;51.56;100571.78;5053519;28;20229;-66
2022/03/28 00:35:36;;;;;;;12.93;7.70;;;;;;;11.16;52.01;100581.69;5053082;28;20748;-67
2022/03/28 00:38:03;;;;;;;11.63;7.40;;;;;;;11.22;51.78;100588.16;5053427;28;20197;-67
2022/03/28 00:40:32;;;;;;;11.13;8.20;;;;;;;11.15;51.88;100595.94;5053049;28;20667;-67
2022/03/28 00:42:59;;;;;;;14.03;7.87;;;;;;;10.99;52.70;100596.03;5053545;28;20221;-67
2022/03/28 00:45:27;;;;;;;9.47;7.17;;;;;;;10.94;53.37;100587.72;5053167;28;20222;-67
2022/03/28 00:47:54;;;;;;;13.63;7.70;;;;;;;10.87;53.82;100592.91;5053235;28;20206;-67
2022/03/28 00:50:20;;;;;;;10.47;6.83;;;;;;;10.83;53.79;100588.13;5053586;28;20623;-66
2022/03/28 00:52:47;;;;;;;10.63;7.33;;;;;;;10.84;54.26;100595.09;5053193;28;20261;-66
2022/03/28 00:55:14;;;;;;;8.20;7.10;;;;;;;10.77;54.67;100591.44;5053045;28;20621;-66
2022/03/28 00:57:43;;;;;;;8.67;7.70;;;;;;;10.35;56.74;100597.03;5052698;28;20247;-66
2022/03/28 01:00:11;;;;;;;9.63;7.10;;;;;;;10.10;58.15;100597.19;5052954;28;20255;-65
2022/03/28 01:02:38;;;;;;;10.17;7.77;;;;;;;10.07;58.15;100608.13;5052202;28;20196;-65
2022/03/28 01:05:05;;;;;;;13.80;8.10;;;;;;;10.18;58.19;100605.97;5052463;28;20658;-66
2022/03/28 01:07:32;;;;;;;13.93;8.23;;;;;;;10.20;58.33;100613.78;5052571;28;20198;-66
2022/03/28 01:09:59;;;;;;;10.17;7.70;;;;;;;10.18;58.65;100611.28;5052504;28;20193;-66
2022/03/28 01:12:27;;;;;;;12.33;8.20;;;;;;;10.04;60.12;100613.72;5053059;28;20204;-65
2022/03/28 01:14:56;;;;;;;13.30;9.03;;;;;;;9.62;61.68;100615.69;5052748;28;20243;-65
2022/03/28 01:20:09;;;;;;;11.90;8.30;;;;;;;9.63;62.15;100609.38;5052454;28;20264;-65
2022/03/28 01:22:37;;;;;;;10.90;8.17;;;;;;;9.54;62.61;100610.34;5052338;28;20192;-64
2022/03/28 01:25:07;;;;;;;10.13;8.03;;;;;;;9.59;63.17;100616.00;5052438;28;20247;-64
2022/03/28 01:27:36;;;;;;;12.97;8.67;;;;;;;9.56;63.37;100605.72;5052177;28;20200;-64
2022/03/28 01:30:04;;;;;;;8.53;7.47;;;;;;;9.50;63.07;100606.38;5053028;28;20192;-64
2022/03/28 01:32:30;;;;;;;9.33;8.33;;;;;;;9.19;64.31;100621.19;5052691;28;20232;-64
2022/03/28 01:34:57;;;;;;;12.07;8.77;;;;;;;9.02;65.63;100606.19;5052695;28;20188;-64
2022/03/28 01:37:24;;;;;;;9.23;8.37;;;;;;;9.06;65.27;100618.97;5053183;28;20196;-64
2022/03/28 01:39:52;;;;;;;10.07;8.47;;;;;;;9.05;65.67;100613.81;5053101;28;20201;-64
2022/03/28 01:42:19;;;;;;;13.30;8.27;;;;;;;9.07;66.22;100614.50;5051994;28;20664;-65
2022/03/28 01:44:49;;;;;;;13.03;8.80;;;;;;;8.91;67.12;100619.72;5052501;28;20192;-64
2022/03/28 01:47:17;;;;;;;12.53;8.50;;;;;;;9.00;66.67;100616.13;5052427;28;20216;-65
2022/03/28 01:49:43;;;;;;;13.93;8.70;;;;;;;8.82;67.93;100623.34;5052040;28;20192;-64
2022/03/28 01:52:10;;;;;;;11.23;9.07;;;;;;;8.37;70.37;100614.75;5052856;28;20265;-65
2022/03/28 01:54:37;;;;;;;12.30;8.57;;;;;;;8.41;70.29;100613.47;5052450;28;20193;-65
2022/03/28 01:57:11;;;;;;;13.70;9.00;;;;;;;8.42;70.02;100607.19;5051882;28;20200;-65
2022/03/28 01:59:37;;;;;;;16.63;9.80;;;;;;;8.45;71.16;100620.94;5051919;28;20189;-65
2022/03/28 02:02:04;;;;;;;14.80;9.40;;;;;;;8.29;71.68;100622.63;5052620;28;20253;-65
2022/03/28 02:04:32;;;;;;;16.07;8.90;;;;;;;8.43;71.41;100611.47;5052114;28;20188;-65
2022/03/28 02:06:59;;;;;;;16.40;8.97;;;;;;;8.49;71.78;100621.47;5052510;28;20278;-65
2022/03/28 02:09:25;;;;;;;11.57;9.50;;;;;;;8.49;72.32;100616.19;5052045;28;20201;-65
2022/03/28 02:11:52;;;;;;;12.27;9.47;;;;;;;8.43;72.06;100622.91;5052306;28;20188;-65
2022/03/28 02:14:20;;;;;;;15.40;9.47;;;;;;;8.37;73.39;100612.13;5052825;28;20201;-66
2022/03/28 02:16:47;;;;;;;11.10;9.90;;;;;;;8.48;73.98;100615.34;5055260;28;20196;-65
2022/03/28 02:19:13;;;;;;;11.90;9.00;;;;;;;8.45;74.04;100622.75;5056593;28;20189;-65
2022/03/28 02:21:40;;;;;;;13.83;9.90;;;;;;;8.24;75.23;100617.78;5056519;28;20260;-65
2022/03/28 02:24:07;;;;;;;19.03;10.03;;;;;;;8.26;75.07;100630.88;5055623;28;20196;-65
2022/03/28 02:26:34;;;;;;;16.37;10.57;;;;;;;8.15;75.95;100633.72;5056663;28;20368;-66
2022/03/28 02:29:01;;;;;;;17.37;10.93;;;;;;;8.17;75.86;100622.00;5056641;28;20574;-65
2022/03/28 02:31:29;;;;;;;15.13;10.53;;;;;;;7.91;77.46;100633.50;5055795;28;20250;-65
2022/03/28 02:33:55;;;;;;;15.40;10.03;;;;;;;7.91;77.39;100630.84;5055398;28;20665;-65
2022/03/28 02:36:22;;;;;;;19.57;10.63;;;;;;;7.82;77.83;100637.06;5055390;28;20234;-65
2022/03/28 02:38:49;;;;;;;15.23;10.10;;;;;;;7.81;78.42;100635.41;5055724;28;20556;-66
2022/03/28 02:41:16;;;;;;;31.07;12.70;;;;;;;7.72;78.85;100641.59;5055279;28;20196;-66
2022/03/28 02:43:43;;;;;;;17.83;11.17;;;;;;;7.84;79.10;100635.13;5055296;28;20695;-65
2022/03/28 02:46:10;;;;;;;19.07;11.23;;;;;;;7.78;79.49;100638.34;5055118;28;20220;-67
2022/03/28 02:48:38;;;;;;;16.37;10.10;;;;;;;7.90;79.36;100650.38;5055148;28;20617;-66
2022/03/28 02:51:05;;;;;;;12.07;10.20;;;;;;;7.83;78.97;100644.00;5055107;28;20227;-65
2022/03/28 02:53:31;;;;;;;16.83;9.93;;;;;;;7.87;79.47;100634.78;5055022;28;20656;-66
2022/03/28 02:55:59;;;;;;;13.93;11.07;;;;;;;7.95;79.05;100642.81;5055381;28;20265;-66
2022/03/28 02:58:26;;;;;;;18.27;11.33;;;;;;;8.03;78.31;100648.16;5055020;28;20284;-66
2022/03/28 03:00:53;;;;;;;18.43;11.27;;;;;;;7.99;78.87;100650.28;5054841;28;20200;-66
2022/03/28 03:03:20;;;;;;;16.50;11.30;;;;;;;7.95;79.37;100648.09;5055450;28;20200;-67
2022/03/28 03:05:49;;;;;;;16.63;11.03;;;;;;;8.06;78.99;100653.16;5055748;28;20228;-66
2022/03/28 03:08:16;;;;;;;11.47;10.27;;;;;;;7.92;79.64;100654.53;5054874;28;20226;-65
2022/03/28 03:10:43;;;;;;;13.50;11.60;;;;;;;7.89;80.25;100656.66;5055342;28;20215;-66
2022/03/28 03:13:10;;;;;;;17.73;10.63;;;;;;;7.82;79.79;100642.34;5055298;28;20197;-66
2022/03/28 03:15:38;;;;;;;15.70;10.67;;;;;;;7.68;80.95;100658.75;5054643;28;20192;-67
2022/03/28 03:18:05;;;;;;;14.60;12.23;;;;;;;7.79;80.43;100663.81;5054630;28;20579;-66
2022/03/28 03:20:32;;;;;;;19.20;10.87;;;;;;;7.85;80.10;100673.81;5054880;28;20228;-66
2022/03/28 03:23:01;;;;;;;14.40;11.23;;;;;;;7.68;80.70;100666.69;5055678;28;20262;-65
2022/03/28 03:25:28;;;;;;;21.43;11.67;;;;;;;7.55;81.57;100674.94;5054619;28;20200;-66
2022/03/28 03:27:55;;;;;;;17.43;11.07;;;;;;;7.72;81.27;100678.63;5054809;28;20609;-66
2022/03/28 03:30:22;;;;;;;18.13;11.17;;;;;;;7.68;81.19;100670.13;5054351;28;20203;-66
2022/03/28 03:32:48;;;;;;;16.87;11.20;;;;;;;7.68;81.13;100677.25;5054329;28;20196;-66
2022/03/28 03:35:15;;;;;;;17.67;11.23;;;;;;;7.70;81.26;100681.41;5055395;28;20192;-66
2022/03/28 03:37:42;;;;;;;17.10;11.50;;;;;;;7.57;81.86;100685.38;5054156;28;20562;-66
2022/03/28 03:40:13;;;;;;;16.37;11.00;;;;;;;7.61;81.59;100695.53;5053961;28;20639;-66
2022/03/28 03:42:40;;;;;;;22.17;10.97;;;;;;;7.67;80.94;100699.41;5054090;28;20647;-67
2022/03/28 03:45:08;;;;;;;20.27;10.60;;;;;;;7.75;80.28;100699.47;5054278;28;20192;-67
2022/03/28 03:47:35;;;;;;;15.63;10.27;;;;;;;7.54;81.44;100690.97;5054153;28;20662;-67
2022/03/28 03:50:02;;;;;;;18.90;10.90;;;;;;;7.66;81.00;100700.34;5054558;28;20193;-67
2022/03/28 03:52:29;;;;;;;21.43;11.77;;;;;;;7.57;81.52;100701.25;5053898;28;20656;-66
2022/03/28 03:54:55;;;;;;;20.40;11.87;;;;;;;7.19;82.68;100696.97;5055011;28;20195;-67
2022/03/28 03:57:23;;;;;;;16.10;10.80;;;;;;;7.43;82.07;100705.22;5054188;28;20204;-66
2022/03/28 03:59:50;;;;;;;18.83;11.07;;;;;;;7.36;83.04;100708.59;5053726;28;20216;-64
2022/03/28 04:02:17;;;;;;;18.10;11.97;;;;;;;7.47;82.26;100711.06;5054397;28;20222;-66
2022/03/28 04:04:44;;;;;;;20.63;13.20;;;;;;;7.53;82.50;100715.75;5053762;28;20283;-66
2022/03/28 04:07:11;;;;;;;19.27;11.37;;;;;;;7.46;82.12;100722.59;5054761;28;20235;-65
2022/03/28 04:09:37;;;;;;;18.77;11.30;;;;;;;7.33;83.32;100722.94;5053633;28;20192;-66
2022/03/28 04:12:05;;;;;;;16.70;12.27;;;;;;;7.42;83.41;100723.84;5053936;28;20329;-66
2022/03/28 04:14:33;;;;;;;18.60;10.83;;;;;;;7.41;82.98;100728.31;5053840;28;20207;-66
2022/03/28 04:17:00;;;;;;;22.37;12.57;;;;;;;7.55;82.91;100727.03;5053582;28;20204;-66
2022/03/28 04:19:27;;;;;;;17.40;11.33;;;;;;;7.70;81.74;100734.31;5053697;28;20251;-66
2022/03/28 04:21:54;;;;;;;22.73;12.17;;;;;;;7.74;81.55;100732.19;5053394;28;20219;-66
2022/03/28 04:24:20;;;;;;;29.67;13.37;;;;;;;7.83;81.04;100745.38;5053321;28;20254;-65
2022/03/28 04:26:47;;;;;;;20.20;13.33;;;;;;;7.93;80.85;100750.59;5054283;28;20232;-66
2022/03/28 04:29:14;;;;;;;17.97;12.80;;;;;;;8.00;81.02;100752.50;5053780;28;20209;-66
2022/03/28 04:31:42;;;;;;;20.30;12.67;;;;;;;8.07;80.86;100758.03;5054278;28;20203;-66
2022/03/28 04:34:09;;;;;;;21.90;13.33;;;;;;;8.20;80.82;100748.75;5053001;28;20680;-66
2022/03/28 04:36:37;;;;;;;23.37;13.70;;;;;;;8.48;79.97;100752.19;5053102;28;20630;-66
2022/03/28 04:39:04;;;;;;;20.67;12.30;;;;;;;8.40;78.20;100765.34;5052720;28;20592;-66
2022/03/28 04:41:31;;;;;;;23.53;12.97;;;;;;;8.74;78.88;100758.38;5053525;28;20188;-66
2022/03/28 04:43:58;;;;;;;24.53;13.40;;;;;;;9.07;76.08;100760.28;5052759;28;20238;-65
2022/03/28 04:46:25;;;;;;;24.13;12.50;;;;;;;9.49;74.79;100766.50;5052668;28;20216;-65
2022/03/28 04:48:53;;;;;;;19.43;12.47;;;;;;;9.90;73.01;100771.81;5053418;28;20220;-65
2022/03/28 04:51:19;;;;;;;13.97;11.70;;;;;;;10.40;71.37;100777.97;5052777;28;20665;-65
2022/03/28 04:53:46;;;;;;;19.17;11.10;;;;;;;10.71;67.84;100786.13;5053047;28;20246;-64
2022/03/28 04:56:13;;;;;;;19.13;11.57;;;;;;;11.03;68.71;100784.28;5052630;28;20197;-65
2022/03/28 04:58:40;;;;;;;17.43;11.13;;;;;;;11.51;65.19;100795.88;5052667;28;20565;-64
2022/03/28 05:01:06;;;;;;;19.17;11.33;;;;;;;12.06;64.26;100800.19;5052609;28;20657;-71
2022/03/28 05:03:33;;;;;;;24.43;11.60;;;;;;;12.25;62.11;100799.75;5053116;28;20692;-73
2022/03/28 05:06:02;;;;;;;18.03;9.87;;;;;;;12.63;59.69;100809.53;5052707;28;20239;-73
2022/03/28 05:08:29;;;;;;;20.07;11.13;;;;;;;12.92;58.78;100803.47;5052739;28;20250;-73
2022/03/28 05:10:55;;;;;;;27.53;12.53;;;;;;;13.25;57.45;100813.72;5052678;28;20196;-73
2022/03/28 05:13:25;;;;;;;19.17;11.07;;;;;;;13.65;56.77;100815.97;5052613;28;20285;-72
2022/03/28 05:15:52;;;;;;;23.87;13.30;;;;;;;14.24;53.55;100820.28;5052376;28;20250;-75
2022/03/28 05:18:19;;;;;;;34.00;16.40;;;;;;;14.74;51.33;100820.22;5052694;28;20637;-73
2022/03/28 05:20:46;;;;;;;17.73;12.17;;;;;;;15.14;48.87;100800.84;5052302;28;20193;-73
2022/03/28 05:23:17;;;;;;;17.57;10.97;;;;;;;15.58;47.20;100822.84;5052523;28;20254;-75
2022/03/28 05:25:44;;;;;;;17.53;10.57;;;;;;;16.19;49.61;100814.91;5052441;28;20193;-73
2022/03/28 05:28:11;;;;;;;7.47;5.83;;;;;;;16.93;58.67;100795.97;5052832;28;20599;-70
2022/03/28 05:30:38;;;;;;;18.73;9.63;;;;;;;17.54;43.63;100823.44;5052495;28;20200;-74
2022/03/28 05:33:04;;;;;;;16.27;10.73;;;;;;;17.94;41.53;100803.53;5052130;28;20560;-70
2022/03/28 05:35:31;;;;;;;22.80;10.40;;;;;;;18.00;39.84;100810.72;5052742;28;20246;-70
2022/03/28 05:37:59;;;;;;;29.53;13.53;;;;;;;17.40;41.23;100800.28;5052338;28;20204;-69
2022/03/28 05:40:27;;;;;;;33.53;17.20;;;;;;;17.76;40.56;100798.81;5063231;28;20208;-69
2022/03/28 05:42:54;;;;;;;27.17;10.17;;;;;;;18.43;39.26;100803.75;5072294;28;20204;-70
2022/03/28 05:45:21;;;;;;;15.60;8.43;;;;;;;18.44;46.97;100800.03;5071950;28;20689;-67
2022/03/28 05:47:48;;;;;;;16.27;8.40;;;;;;;19.08;39.73;100814.13;5071930;28;20756;-67
2022/03/28 05:50:14;;;;;;;16.67;7.20;;;;;;;19.84;45.57;100820.91;5071777;28;20199;-67
2022/03/28 05:52:41;;;;;;;10.70;6.57;;;;;;;19.81;43.96;100810.56;5071942;28;20192;-70
2022/03/28 05:55:09;;;;;;;18.77;12.73;;;;;;;19.72;35.47;100803.81;5071794;28;20193;-70
2022/03/28 05:57:38;;;;;;;12.83;7.90;;;;;;;20.27;34.36;100821.69;5072125;28;20197;-70
2022/03/28 06:00:09;;;;;;;16.10;7.70;;;;;;;20.27;32.95;100802.78;5071986;28;20205;-69
2022/03/28 06:02:36;;;;;;;13.87;8.00;;;;;;;20.63;33.26;100813.53;5072127;28;20233;-70
2022/03/28 06:05:05;;;;;;;19.97;8.27;;;;;;;20.86;33.28;100805.47;5071689;28;20196;-69
2022/03/28 06:07:32;;;;;;;15.83;7.50;;;;;;;20.83;36.27;100816.78;5072005;28;20356;-69
2022/03/28 06:09:59;;;;;;;23.60;8.17;;;;;;;20.60;41.33;100797.78;5071743;28;20199;-69
2022/03/28 06:12:26;;;;;;;14.60;8.17;;;;;;;21.01;36.95;100813.19;5072582;28;20249;-67
2022/03/28 06:14:54;;;;;;;13.07;6.93;;;;;;;21.10;42.06;100806.41;5071507;28;20245;-71
2022/03/28 06:17:21;;;;;;;10.33;6.50;;;;;;;21.91;37.20;100799.97;5051611;28;20204;-74
2022/03/28 06:19:48;;;;;;;9.70;7.27;;;;;;;22.79;33.90;100814.75;5052812;28;20283;-69
2022/03/28 06:22:15;;;;;;;12.77;8.37;;;;;;;23.04;29.78;100812.53;5051914;28;20258;-70
2022/03/28 06:24:41;;;;;;;12.10;7.47;;;;;;;23.73;31.17;100812.00;5051570;28;20742;-68
2022/03/28 06:27:08;;;;;;;9.83;7.10;;;;;;;23.63;27.47;100806.44;5051646;28;20232;-70
2022/03/28 06:29:35;;;;;;;19.07;7.37;;;;;;;23.58;27.23;100816.41;5068512;28;20184;-68
2022/03/28 06:32:04;;;;;;;14.27;7.07;;;;;;;23.51;27.16;100819.28;5065743;28;20293;-68
2022/03/28 06:34:31;;;;;;;11.27;6.67;;;;;;;23.36;27.40;100805.47;5071226;28;20250;-68
2022/03/28 06:36:58;;;;;;;13.10;5.60;;;;;;;23.29;32.87;100799.44;5071169;28;20635;-70
2022/03/28 06:39:25;;;;;;;13.30;7.60;;;;;;;23.04;27.96;100817.97;5071368;28;20200;-70
2022/03/28 06:41:52;;;;;;;14.40;6.03;;;;;;;22.82;32.11;100803.44;5070005;28;20215;-70
2022/03/28 06:44:19;;;;;;;12.67;6.10;;;;;;;23.32;32.08;100807.03;5069643;28;20188;-71
2022/03/28 06:46:46;;;;;;;14.70;6.27;;;;;;;23.73;31.52;100809.31;5072175;28;20196;-70
2022/03/28 06:49:14;;;;;;;7.17;6.13;;;;;;;23.65;27.62;100808.91;5071507;28;20204;-69
2022/03/28 06:51:41;;;;;;;9.60;6.40;;;;;;;22.72;31.29;100814.13;5071159;28;20193;-69
2022/03/28 06:54:08;;;;;;;12.27;5.97;;;;;;;23.41;31.10;100805.59;5071108;28;20572;-70
2022/03/28 06:56:36;;;;;;;13.90;6.80;;;;;;;23.98;29.94;100804.25;5071154;28;20196;-69
2022/03/28 06:59:03;;;;;;;11.47;6.43;;;;;;;24.46;27.94;100801.59;5071863;28;20265;-71
2022/03/28 07:01:30;;;;;;;14.27;6.73;;;;;;;24.84;27.61;100806.91;5070640;28;20194;-69
2022/03/28 07:03:57;;;;;;;10.87;6.97;;;;;;;24.43;25.87;100802.09;5074865;28;20234;-70
2022/03/28 07:06:25;;;;;;;13.23;6.27;;;;;;;24.73;27.94;100807.91;5075055;28;20218;-71
2022/03/28 07:08:53;;;;;;;11.60;6.60;;;;;;;24.91;26.99;100799.38;5074653;28;20227;-70
2022/03/28 07:11:20;;;;;;;11.80;6.23;;;;;;;25.15;27.90;100786.25;5070025;28;20204;-72
2022/03/28 07:13:46;;;;;;;11.90;6.80;;;;;;;25.51;26.93;100788.19;5054652;28;20251;-71
2022/03/28 07:16:13;;;;;;;13.73;7.60;;;;;;;25.41;26.93;100800.91;5055000;28;20627;-70
2022/03/28 07:18:41;;;;;;;10.30;6.93;;;;;;;24.98;25.75;100778.25;5054991;28;20249;-70
2022/03/28 07:21:08;;;;;;;8.87;7.73;;;;;;;25.42;25.74;100788.94;5054415;28;20200;-70
2022/03/28 07:23:36;;;;;;;7.77;6.80;;;;;;;24.91;26.29;100793.94;5054789;28;20242;-70
2022/03/28 07:26:03;;;;;;;12.73;7.37;;;;;;;24.85;26.25;100800.41;5054652;28;20214;-71
2022/03/28 07:28:30;;;;;;;18.83;7.97;;;;;;;24.60;25.71;100794.72;5069977;28;20254;-70
2022/03/28 07:30:56;;;;;;;11.27;6.33;;;;;;;24.22;27.99;100792.06;5094670;28;20210;-70
2022/03/28 07:33:23;;;;;;;10.40;7.70;;;;;;;24.58;26.07;100798.72;5089577;28;20570;-70
2022/03/28 07:35:50;;;;;;;18.10;7.10;;;;;;;24.39;27.18;100794.72;5074906;28;20203;-69
2022/03/28 07:38:17;;;;;;;12.97;6.80;;;;;;;24.39;27.47;100795.53;5074860;28;20194;-69
2022/03/28 07:40:45;;;;;;;15.17;6.77;;;;;;;24.62;26.55;100789.00;5074707;28;20252;-69
2022/03/28 07:43:12;;;;;;;12.37;7.40;;;;;;;24.67;27.22;100786.38;5074550;28;20662;-69
2022/03/28 07:45:39;;;;;;;7.53;6.77;;;;;;;24.64;26.56;100787.72;5074092;28;20202;-68
2022/03/28 07:48:07;;;;;;;8.23;7.00;;;;;;;24.61;26.83;100781.94;5074321;28;20222;-69
2022/03/28 07:50:34;;;;;;;11.73;7.40;;;;;;;24.75;26.41;100792.16;5074777;28;20545;-69
2022/03/28 07:53:01;;;;;;;9.83;7.27;;;;;;;24.66;26.27;100790.97;5073974;28;20671;-68
2022/03/28 07:55:28;;;;;;;13.53;7.73;;;;;;;24.73;26.73;100780.72;5073947;28;20667;-68
2022/03/28 07:57:59;;;;;;;10.83;7.60;;;;;;;24.81;26.52;100776.72;5073835;28;20253;-68
2022/03/28 08:00:26;;;;;;;10.70;6.63;;;;;;;24.81;26.89;100766.66;5073900;28;20249;-68
2022/03/28 08:02:53;;;;;;;10.13;7.40;;;;;;;24.19;26.51;100767.31;5074103;28;20203;-68
2022/03/28 08:05:20;;;;;;;7.87;7.00;;;;;;;24.07;27.78;100770.19;5073629;28;20248;-69
2022/03/28 08:07:47;;;;;;;10.53;7.57;;;;;;;24.51;27.06;100768.22;5073494;28;20781;-69
2022/03/28 08:10:14;;;;;;;15.50;7.83;;;;;;;24.92;27.55;100762.13;5073709;28;20199;-69
2022/03/28 08:12:42;;;;;;;10.00;6.83;;;;;;;25.14;27.27;100759.34;5073162;28;20200;-65
2022/03/28 08:15:11;;;;;;;14.17;7.33;;;;;;;25.22;26.96;100758.81;5074117;28;20194;-69
2022/03/28 08:17:39;;;;;;;8.07;7.23;;;;;;;25.54;26.52;100751.47;5074307;28;20199;-69
2022/03/28 08:20:09;;;;;;;10.63;7.83;;;;;;;25.43;24.58;100752.50;5073911;28;20204;-69
2022/03/28 08:22:35;;;;;;;14.10;7.73;;;;;;;25.42;26.62;100746.22;5073636;28;20286;-69
2022/03/28 08:25:02;;;;;;;11.80;7.80;;;;;;;25.53;24.85;100715.28;5073623;28;20199;-70
2022/03/28 08:27:29;;;;;;;11.20;6.93;;;;;;;25.47;26.13;100745.44;5055335;28;20192;-70
2022/03/28 08:29:55;;;;;;;8.40;7.73;;;;;;;25.37;24.54;100739.94;5053206;28;20200;-71
2022/03/28 08:32:24;;;;;;;9.53;7.20;;;;;;;25.04;26.04;100725.50;5053515;28;20672;-69
2022/03/28 08:34:50;;;;;;;11.00;8.10;;;;;;;24.77;25.58;100722.03;5054386;28;20266;-69
2022/03/28 08:37:18;;;;;;;10.13;7.30;;;;;;;24.87;26.41;100733.00;5073175;28;20252;-70
2022/03/28 08:39:45;;;;;;;15.10;7.63;;;;;;;25.08;25.76;100716.84;5073066;28;20667;-65
2022/03/28 08:42:13;;;;;;;11.93;7.97;;;;;;;25.24;25.32;100715.88;5073341;28;20199;-69
2022/03/28 08:44:39;;;;;;;12.60;6.90;;;;;;;25.41;25.35;100711.09;5055044;28;20197;-70
2022/03/28 08:47:09;;;;;;;12.27;7.00;;;;;;;25.41;26.45;100706.50;5052954;28;20608;-69
2022/03/28 08:49:37;;;;;;;12.63;7.40;;;;;;;25.41;26.82;100700.22;5053281;28;20279;-69
2022/03/28 08:52:06;;;;;;;9.20;7.73;;;;;;;25.52;26.22;100686.41;5053223;28;20258;-68
2022/03/28 08:54:33;;;;;;;11.97;8.23;;;;;;;25.73;26.06;100682.72;5053095;28;20250;-69
2022/03/28 08:56:59;;;;;;;9.23;7.93;;;;;;;25.63;26.18;100681.84;5053013;28;20249;-69
2022/03/28 08:59:26;;;;;;;10.23;7.50;;;;;;;25.64;25.72;100683.47;5052497;28;20254;-75
2022/03/28 09:01:53;;;;;;;20.70;8.03;;;;;;;25.88;25.72;100679.22;5054475;28;20201;-66
2022/03/28 09:04:20;;;;;;;13.87;8.80;;;;;;;25.84;24.92;100669.97;5072257;28;20200;-66
2022/03/28 09:06:48;;;;;;;13.00;8.07;;;;;;;25.47;25.75;100666.53;5072852;28;20800;-67
2022/03/28 09:09:17;;;;;;;11.53;7.97;;;;;;;25.22;25.96;100669.06;5072601;28;20292;-66
2022/03/28 09:11:45;;;;;;;14.33;7.43;;;;;;;25.19;28.03;100664.97;5072612;28;20274;-79
2022/03/28 09:14:14;;;;;;;14.63;8.13;;;;;;;25.25;25.68;100653.06;5072762;28;20199;-76
2022/03/28 09:16:41;;;;;;;9.10;6.97;;;;;;;25.20;27.86;100641.31;5072823;28;20202;-74
2022/03/28 09:19:12;;;;;;;10.43;7.73;;;;;;;25.48;26.98;100651.84;5071817;28;20195;-72
2022/03/28 09:21:50;;;;;;;8.77;8.10;;;;;;;25.43;25.96;100649.91;5070036;28;20286;-76
2022/03/28 09:24:18;;;;;;;10.17;7.67;;;;;;;24.90;25.77;100634.59;5068712;28;20190;-74
2022/03/28 09:26:45;;;;;;;8.63;7.83;;;;;;;24.27;27.59;100634.63;5077356;28;20294;-75
2022/03/28 09:29:12;;;;;;;12.80;7.83;;;;;;;24.36;28.02;100627.63;5087000;28;20274;-79
2022/03/28 09:31:43;;;;;;;9.55;7.80;;;;;;;24.63;28.71;100633.84;5083762;28;20854;-72
2022/03/28 09:34:12;;;;;;;9.57;7.87;;;;;;;25.05;27.46;100625.72;5075381;28;20287;-71
2022/03/28 09:36:43;;;;;;;12.87;8.47;;;;;;;24.75;26.57;100628.25;5064224;28;20314;-69
2022/03/28 09:39:12;;;;;;;11.23;8.40;;;;;;;24.78;27.45;100625.81;5065873;28;20864;-69
2022/03/28 09:41:40;;;;;;;16.27;14.73;;;;;;;24.86;28.24;100617.19;5069115;28;20250;-69
2022/03/28 09:44:08;;;;;;;18.40;9.90;;;;;;;24.93;26.47;100617.78;5068786;28;20208;-69
2022/03/28 09:46:37;;;;;;;16.23;9.23;;;;;;;25.10;26.84;100617.59;5070492;28;20231;-69
2022/03/28 09:49:04;;;;;;;9.77;8.13;;;;;;;25.34;27.99;100612.56;5069682;28;20583;-69
2022/03/28 09:51:34;;;;;;;9.90;8.03;;;;;;;25.43;27.70;100598.19;5070371;28;20196;-68
2022/03/28 09:54:01;;;;;;;9.27;8.13;;;;;;;25.21;25.96;100604.88;5071340;28;20196;-68
2022/03/28 09:56:28;;;;;;;11.70;8.10;;;;;;;24.84;27.63;100608.44;5070887;28;20191;-68
2022/03/28 09:58:59;;;;;;;14.93;7.57;;;;;;;24.85;27.59;100588.38;5070815;28;20250;-68
2022/03/28 10:01:29;;;;;;;11.00;8.37;;;;;;;25.03;25.86;100596.06;5071166;28;20191;-68
2022/03/28 10:04:00;;;;;;;12.27;7.50;;;;;;;25.11;27.54;100583.88;5070677;28;20702;-71
2022/03/28 10:06:28;;;;;;;10.10;7.23;;;;;;;25.27;25.74;100584.78;5070307;28;20243;-69
2022/03/28 10:08:55;;;;;;;11.97;7.80;;;;;;;24.94;26.79;100575.91;5071378;28;20648;-69
2022/03/28 10:11:21;;;;;;;10.80;8.10;;;;;;;24.74;26.16;100570.34;5070638;28;20192;-78
2022/03/28 10:13:48;;;;;;;13.93;8.17;;;;;;;24.59;27.14;100572.13;5071279;28;20198;-79
2022/03/28 10:16:17;;;;;;;11.47;7.73;;;;;;;24.77;27.35;100563.56;5071109;28;20667;-78
2022/03/28 10:18:45;;;;;;;10.40;7.27;;;;;;;24.86;26.61;100554.66;5070627;28;20207;-77
2022/03/28 10:21:18;;;;;;;8.53;7.70;;;;;;;24.98;26.52;100556.34;5071199;28;20606;-79
2022/03/28 10:23:50;;;;;;;9.87;8.13;;;;;;;24.85;26.13;100555.75;5071025;28;20659;-70
2022/03/28 10:26:19;;;;;;;12.57;9.30;;;;;;;24.11;26.99;100543.22;5071239;28;20647;-71
2022/03/28 10:29:01;;;;;;;12.47;8.50;;;;;;;23.64;27.08;100536.75;5081429;28;20276;-69
2022/03/28 10:31:32;;;;;;;9.80;8.50;;;;;;;23.50;27.52;100532.81;5092013;28;20314;-68
2022/03/28 10:33:59;;;;;;;14.23;8.93;;;;;;;23.02;27.54;100521.91;5085809;28;20257;-69
2022/03/28 10:36:30;;;;;;;14.53;8.57;;;;;;;23.00;28.01;100526.78;5066628;28;20197;-69
2022/03/28 10:39:34;;;;;;;12.83;8.50;;;;;;;23.10;27.53;100507.09;5076008;28;20602;-69
2022/03/28 10:42:13;;;;;;;8.87;7.90;;;;;;;22.73;27.96;100490.63;5074832;28;20241;-71
2022/03/28 10:44:45;;;;;;;9.77;8.43;;;;;;;22.60;28.38;100496.41;5075790;28;20517;-71
2022/03/28 10:47:15;;;;;;;11.00;8.17;;;;;;;22.25;29.44;100487.72;5074503;28;20257;-71
2022/03/28 10:49:46;;;;;;;13.87;8.47;;;;;;;22.40;29.21;100490.69;5074972;28;20311;-71
2022/03/28 10:52:16;;;;;;;9.87;7.70;;;;;;;22.36;29.51;100478.69;5074949;28;20200;-71
2022/03/28 10:54:43;;;;;;;12.47;8.10;;;;;;;22.17;30.07;100474.63;5074615;28;20634;-69
2022/03/28 10:57:26;;;;;;;20.50;8.00;;;;;;;22.14;30.52;100471.59;5074932;28;20192;-68
2022/03/28 11:00:02;;;;;;;13.07;7.87;;;;;;;22.02;29.95;100460.88;5074455;28;20651;-68
2022/03/28 11:02:30;;;;;;;12.43;7.63;;;;;;;22.24;30.53;100460.91;5074628;28;20639;-70
2022/03/28 11:05:07;;;;;;;13.77;7.43;;;;;;;22.07;30.54;100457.41;5073382;28;20253;-71
2022/03/28 11:07:34;;;;;;;10.10;8.13;;;;;;;22.23;30.00;100451.97;5075094;28;20195;-71
2022/03/28 11:10:06;;;;;;;13.07;8.10;;;;;;;22.33;29.94;100441.28;5074571;28;20599;-71
2022/03/28 11:12:37;;;;;;;11.43;7.87;;;;;;;22.26;29.74;100440.63;5075685;28;20222;-70
2022/03/28 11:15:13;;;;;;;11.03;7.93;;;;;;;22.01;30.24;100434.84;5074574;28;20184;-70
2022/03/28 11:17:55;;;;;;;12.73;8.43;;;;;;;21.87;30.52;100420.03;5075028;28;20223;-69
2022/03/28 11:20:23;;;;;;;13.07;7.80;;;;;;;21.91;30.64;100428.47;5074261;28;20370;-69
2022/03/28 11:22:55;;;;;;;13.80;8.67;;;;;;;21.91;30.46;100423.88;5074057;28;20200;-70
2022/03/28 11:25:44;;;;;;;8.67;7.93;;;;;;;21.95;30.44;100416.91;5073540;28;20680;-69